Time;durP1;ratioP1;P1;durP2;ratioP2;P2;SDS_P1;SDS_P2;PMS_P1;PMS_P2;Temp;Humidity;BMP_temperature;BMP_pressure;BME280_temperature;BME280_humidity;BME280_pressure;Samples;Min_cycle;Max_cycle;Signal;HPM_P1;HPM_P2
2022/12/12 00:00:22;;;;;;;;;39.75;34.25;;;;;3.74;62.91;702.28;5053999;28;47008;-87
2022/12/12 00:02:48;;;;;;;;;39.25;33.50;;;;;3.74;62.89;1031.25;5040095;28;45412;-90
2022/12/12 00:05:16;;;;;;;;;37.00;31.50;;;;;3.37;62.57;1357.72;5057221;28;45459;-88
2022/12/12 00:07:41;;;;;;;;;38.75;33.25;;;;;3.66;62.68;1030.72;5062921;28;45477;-90
2022/12/12 00:10:08;;;;;;;;;27.75;27.50;;;;;3.68;62.78;1359.88;5068605;28;45354;-93
2022/12/12 00:12:34;;;;;;;;;35.75;34.00;;;;;3.63;62.87;1030.56;5056679;28;45314;-92
2022/12/12 00:14:59;;;;;;;;;29.50;25.00;;;;;3.46;63.14;700.63;5067058;28;45285;-91
2022/12/12 00:17:25;;;;;;;;;34.25;28.50;;;;;3.19;62.89;699.09;5066233;28;45488;-91
2022/12/12 00:19:50;;;;;;;;;36.75;26.00;;;;;3.44;62.90;700.53;5045889;28;47503;-93
2022/12/12 00:22:15;;;;;;;;;35.75;30.75;;;;;3.76;63.17;1031.41;5060839;28;45273;-92
2022/12/12 00:24:41;;;;;;;;;39.00;29.75;;;;;3.75;62.76;1031.31;5057812;28;45252;-91
2022/12/12 00:27:06;;;;;;;;;29.00;25.75;;;;;3.72;63.06;702.19;5055998;28;46164;-92
2022/12/12 00:29:32;;;;;;;;;46.25;36.75;;;;;3.81;62.92;373.72;5044053;28;47014;-93
2022/12/12 00:31:57;;;;;;;;;35.50;33.75;;;;;3.32;62.68;699.84;5046203;28;45620;-90
2022/12/12 00:34:23;;;;;;;;;38.50;32.00;;;;;3.83;62.87;702.81;5053952;28;45248;-92
2022/12/12 00:36:50;;;;;;;;;38.75;32.25;;;;;3.78;62.50;1031.53;5057486;28;46481;-91
2022/12/12 00:39:16;;;;;;;;;32.75;30.50;;;;;3.63;62.89;1359.50;5053409;28;47179;-89
2022/12/12 00:41:41;;;;;;;;;36.50;29.75;;;;;3.41;62.71;1358.00;5056959;28;45509;-90
2022/12/12 00:44:07;;;;;;;;;32.00;30.25;;;;;3.59;63.04;1030.34;5042665;28;45267;-91
2022/12/12 00:46:32;;;;;;;;;43.50;33.25;;;;;3.57;62.89;1030.19;5051945;28;45555;-90
2022/12/12 00:48:58;;;;;;;;;36.25;30.50;;;;;3.02;63.17;1026.66;5067093;28;46973;-89
2022/12/12 00:51:25;;;;;;;;;33.75;30.75;;;;;3.56;63.00;1030.13;5039143;28;45401;-93
2022/12/12 00:53:52;;;;;;;;;30.00;28.00;;;;;3.09;63.02;1355.78;5053628;28;45771;-95
2022/12/12 00:56:21;;;;;;;;;32.75;27.50;;;;;3.53;63.53;1029.91;5070755;28;45386;-93
2022/12/12 00:58:46;;;;;;;;;27.00;23.75;;;;;3.53;63.27;701.09;5057696;28;47125;-94
2022/12/12 01:01:15;;;;;;;;;34.00;29.00;;;;;3.47;63.22;371.91;5057649;28;45516;-95
2022/12/12 01:03:41;;;;;;;;;39.25;32.00;;;;;3.56;63.53;701.22;5063472;28;45309;-91
2022/12/12 01:06:08;;;;;;;;;37.50;30.50;;;;;3.59;63.28;372.56;5052396;28;45627;-92
2022/12/12 01:08:33;;;;;;;;;38.25;32.75;;;;;3.56;63.80;372.41;5065882;28;48293;-91
2022/12/12 01:10:59;;;;;;;;;30.50;28.00;;;;;3.65;63.61;44.00;5056481;28;45359;-91
2022/12/12 01:13:25;;;;;;;;;33.50;27.25;;;;;3.65;63.84;43.97;5056941;28;45506;-91
2022/12/12 01:15:51;;;;;;;;;20.00;16.50;;;;;3.27;63.35;-286.44;5057248;28;45523;-84
2022/12/12 01:18:17;;;;;;;;;23.75;23.75;;;;;3.68;63.02;-284.72;5045742;28;46323;-84
2022/12/12 01:20:43;;;;;;;;;33.25;26.00;;;;;3.62;63.57;-285.00;5067704;28;45425;-84
2022/12/12 01:23:08;;;;;;;;;30.50;27.50;;;;;3.48;63.54;43.19;5074541;28;45509;-84
2022/12/12 01:25:33;;;;;;;;;37.00;26.50;;;;;3.35;63.26;42.56;5056299;28;45569;-84
2022/12/12 01:27:59;;;;;;;;;25.50;23.50;;;;;3.17;63.15;41.72;5057148;28;47539;-86
2022/12/12 01:30:25;;;;;;;;;30.25;25.75;;;;;3.56;63.68;43.56;5073513;28;45277;-85
2022/12/12 01:32:51;;;;;;;;;23.50;23.25;;;;;3.57;63.55;43.59;5057590;28;45412;-86
2022/12/12 01:35:17;;;;;;;;;25.00;23.50;;;;;3.46;63.42;-285.69;5053896;28;45556;-87
2022/12/12 01:37:42;;;;;;;;;31.00;26.00;;;;;3.79;63.23;-613.16;5057523;28;47252;-85
2022/12/12 01:40:15;;;;;;;;;26.00;24.00;;;;;3.80;63.27;-613.13;5068087;28;45477;-83
2022/12/12 01:42:41;;;;;;;;;28.25;23.25;;;;;3.36;63.47;-614.75;5068397;28;45598;-83
2022/12/12 01:45:07;;;;;;;;;32.00;25.00;;;;;3.64;63.35;-942.50;5059969;28;45486;-84
2022/12/12 01:47:32;;;;;;;;;32.00;25.50;;;;;3.91;63.36;-941.66;5055470;28;46570;-84
2022/12/12 01:50:06;;;;;;;;;25.75;23.50;;;;;3.92;63.16;-941.59;5058148;28;45806;-84
2022/12/12 01:52:44;;;;;;;;;28.50;25.00;;;;;3.63;63.30;-942.53;5058171;28;45733;-89
2022/12/12 01:55:16;;;;;;;;;27.00;24.25;;;;;3.77;63.02;-942.09;5060962;28;45529;-85
2022/12/12 01:57:46;;;;;;;;;26.00;24.50;;;;;3.93;63.00;-941.59;5056121;28;47409;-86
2022/12/12 02:00:12;;;;;;;;;25.75;24.00;;;;;3.80;62.93;-941.97;5064377;28;45449;-88
2022/12/12 02:02:41;;;;;;;;;18.50;18.00;;;;;3.95;63.18;-941.53;5060853;28;45316;-84
2022/12/12 02:05:22;;;;;;;;;33.75;27.25;;;;;3.84;62.86;-941.88;5044617;28;45600;-85
2022/12/12 02:07:48;;;;;;;;;28.75;25.50;;;;;3.61;62.90;-1271.34;5063394;28;47573;-88
2022/12/12 02:10:13;;;;;;;;;22.75;20.00;;;;;3.71;62.98;-942.28;5065468;28;45450;-85
2022/12/12 02:12:39;;;;;;;;;28.50;24.50;;;;;3.86;63.27;-941.81;5060267;28;45610;-86
2022/12/12 02:15:04;;;;;;;;;21.50;18.75;;;;;3.61;63.20;-942.59;5066037;28;45486;-86
2022/12/12 02:18:04;;;;;;;;;30.00;23.00;;;;;4.06;63.12;-941.19;5052548;28;46320;-91
2022/12/12 02:20:49;;;;;;;;;31.75;26.50;;;;;4.11;63.27;-941.00;5061600;28;46039;-90
2022/12/12 02:23:35;;;;;;;;;26.25;21.75;;;;;4.22;62.92;-940.66;5071862;28;45473;-90
2022/12/12 02:26:26;;;;;;;;;28.25;24.25;;;;;4.28;62.63;-940.47;5061609;28;45347;-92
2022/12/12 02:28:51;;;;;;;;;25.75;20.25;;;;;4.32;62.28;-611.19;5038444;28;47321;-92
2022/12/12 02:31:43;;;;;;;;;28.00;19.75;;;;;3.85;62.24;-612.97;5041198;28;45901;-92
2022/12/12 02:34:24;;;;;;;;;34.50;24.50;;;;;4.34;62.25;-611.13;5054700;28;45387;-89
2022/12/12 02:37:15;;;;;;;;;28.50;23.50;;;;;4.32;62.16;-611.22;5041297;28;45417;-88
2022/12/12 02:39:46;;;;;;;;;18.75;14.50;;;;;4.33;62.24;-282.00;5057061;28;47219;-94
2022/12/12 02:42:44;;;;;;;;;14.25;14.00;;;;;4.30;62.02;-282.13;5054474;28;46277;-91
2022/12/12 02:45:44;;;;;;;;;23.75;22.25;;;;;4.21;62.25;46.69;5060734;28;45595;-91
2022/12/12 02:48:20;;;;;;;;;24.00;23.75;;;;;4.27;61.98;46.91;5056720;28;45816;-89
2022/12/12 02:50:49;;;;;;;;;30.75;21.75;;;;;4.27;61.84;46.91;5060911;28;47321;-85
2022/12/12 02:53:20;;;;;;;;;25.00;20.25;;;;;4.21;61.78;46.69;5052005;28;45381;-88
2022/12/12 02:55:48;;;;;;;;;30.50;25.00;;;;;4.22;62.47;46.72;5058491;28;45319;-96
2022/12/12 02:58:19;;;;;;;;;21.25;19.50;;;;;4.30;61.78;47.06;5065090;28;45283;-93
2022/12/12 03:01:29;;;;;;;;;24.00;21.25;;;;;4.25;62.16;376.00;5058468;28;47533;-88
2022/12/12 03:09:57;;;;;;;;;28.00;24.50;;;;;4.07;61.88;1033.34;5069655;28;45303;-96
2022/12/12 03:12:34;;;;;;;;;25.50;22.00;;;;;4.04;62.39;1362.34;5046174;28;47229;-93
2022/12/12 03:15:20;;;;;;;;;26.50;24.00;;;;;3.84;62.03;1360.97;5057634;28;45548;-85
2022/12/12 03:18:00;;;;;;;;;26.50;23.25;;;;;4.12;62.28;1033.69;5047466;28;45362;-84
2022/12/12 03:20:36;;;;;;;;;22.25;21.75;;;;;3.97;61.73;1361.88;5068931;28;45377;-87
2022/12/12 03:23:12;;;;;;;;;20.75;18.25;;;;;4.02;61.71;1691.38;5068089;28;45367;-86
2022/12/12 03:25:48;;;;;;;;;22.75;21.00;;;;;3.79;61.38;1689.72;5058075;28;45602;-85
2022/12/12 03:28:23;;;;;;;;;26.00;20.50;;;;;3.51;61.72;1687.63;5070661;28;45376;-85
2022/12/12 03:30:54;;;;;;;;;31.25;22.75;;;;;4.04;61.82;2020.72;5057681;28;45441;-85
2022/12/12 03:33:48;;;;;;;;;26.25;23.50;;;;;4.02;61.78;1691.41;5053900;28;48726;-85
2022/12/12 03:36:28;;;;;;;;;26.25;22.50;;;;;3.61;61.94;1688.34;5036776;28;45500;-87
2022/12/12 03:39:00;;;;;;;;;24.25;22.75;;;;;4.09;61.84;1362.66;5053349;28;45387;-83
2022/12/12 03:41:35;;;;;;;;;25.00;24.25;;;;;4.11;62.15;1033.63;5048958;28;45416;-85
2022/12/12 03:44:05;;;;;;;;;25.00;23.75;;;;;3.68;62.12;1030.84;5051022;28;47168;-85
2022/12/12 03:46:46;;;;;;;;;24.50;23.25;;;;;4.18;62.25;1034.06;5056758;28;45407;-86
2022/12/12 03:49:18;;;;;;;;;29.75;24.50;;;;;3.49;61.59;1029.69;5039880;28;45453;-85
2022/12/12 03:51:51;;;;;;;;;23.75;23.25;;;;;3.94;61.95;1361.63;5031445;28;45371;-86
2022/12/12 03:54:19;;;;;;;;;21.25;21.25;;;;;4.20;61.54;1363.47;5022907;28;48338;-86
2022/12/12 03:56:54;;;;;;;;;21.50;21.25;;;;;3.65;61.75;1359.63;5051966;28;45387;-85
2022/12/12 03:59:28;;;;;;;;;26.50;21.50;;;;;3.09;61.50;1684.47;5024082;28;45596;-86
2022/12/12 04:02:03;;;;;;;;;26.00;24.50;;;;;3.89;61.75;1361.31;5066210;28;45490;-86
2022/12/12 04:04:59;;;;;;;;;27.75;25.25;;;;;4.16;62.12;1363.16;5062223;28;47340;-85
2022/12/12 04:07:37;;;;;;;;;26.50;25.25;;;;;3.72;61.94;1360.13;5056564;28;45427;-86
2022/12/12 04:13:22;;;;;;;;;25.50;21.00;;;;;4.18;62.10;1363.34;5044672;28;45322;-86
2022/12/12 04:15:56;;;;;;;;;26.75;24.00;;;;;4.22;61.80;1034.31;5027479;28;45550;-85
2022/12/12 04:18:35;;;;;;;;;26.25;23.00;;;;;4.00;61.67;1362.09;5041124;28;45513;-86
2022/12/12 04:24:21;;;;;;;;;24.25;22.50;;;;;4.24;62.10;1363.72;5055753;28;45522;-84
2022/12/12 04:27:10;;;;;;;;;31.50;25.50;;;;;4.22;61.62;1692.91;5042714;28;45504;-85
2022/12/12 04:30:00;;;;;;;;;24.75;22.50;;;;;4.23;62.02;1363.66;5051349;28;46554;-85
2022/12/12 04:32:38;;;;;;;;;25.75;23.75;;;;;4.22;61.95;1692.91;5051751;28;45461;-85
2022/12/12 04:35:06;;;;;;;;;23.75;22.50;;;;;4.25;61.72;1693.06;5052236;28;47131;-86
2022/12/12 04:37:42;;;;;;;;;24.75;24.25;;;;;4.15;61.04;1692.38;5052885;28;47673;-85
2022/12/12 04:40:11;;;;;;;;;24.50;23.25;;;;;4.25;61.67;1693.09;5036338;28;45374;-84
2022/12/12 04:42:45;;;;;;;;;28.25;25.00;;;;;4.05;61.77;1691.56;5033193;28;45527;-85
2022/12/12 04:45:15;;;;;;;;;25.50;20.75;;;;;3.77;61.31;1360.47;5029782;28;45681;-85
2022/12/12 04:47:43;;;;;;;;;29.50;24.50;;;;;4.32;61.47;1364.28;5056261;28;46030;-85
2022/12/12 04:50:11;;;;;;;;;20.00;15.00;;;;;4.00;61.32;1362.06;5047746;28;45978;-85
2022/12/12 04:52:39;;;;;;;;;26.25;21.00;;;;;4.21;61.75;1363.53;5055870;28;45423;-85
2022/12/12 04:55:11;;;;;;;;;26.25;20.75;;;;;3.87;61.58;1690.25;5055894;28;45476;-84
2022/12/12 04:57:42;;;;;;;;;28.75;22.00;;;;;4.25;61.71;1693.06;5048316;28;46432;-85
2022/12/12 05:00:11;;;;;;;;;26.00;22.75;;;;;4.13;61.36;2021.50;5029433;28;45418;-84
2022/12/12 05:02:39;;;;;;;;;22.25;20.75;;;;;4.28;61.60;1693.28;5044436;28;45507;-86
2022/12/12 05:05:14;;;;;;;;;20.00;18.75;;;;;3.81;61.75;1689.84;5053349;28;45399;-85
2022/12/12 05:07:47;;;;;;;;;28.00;27.50;;;;;3.93;61.93;1361.59;5044793;28;46809;-85
2022/12/12 05:10:15;;;;;;;;;25.25;22.25;;;;;4.33;61.84;1364.31;5038000;28;45322;-85
2022/12/12 05:12:49;;;;;;;;;26.75;23.25;;;;;4.15;61.70;1033.91;5039296;28;45323;-84
2022/12/12 05:15:17;;;;;;;;;29.50;24.25;;;;;3.72;61.82;1031.16;5048559;28;45486;-85
2022/12/12 05:17:53;;;;;;;;;25.75;23.00;;;;;4.41;61.24;1035.53;5064916;28;48081;-91
2022/12/12 05:20:19;;;;;;;;;27.00;21.75;;;;;4.27;61.81;1034.66;5040759;28;45373;-91
2022/12/12 05:22:44;;;;;;;;;21.50;19.25;;;;;4.01;61.44;1033.00;5036543;28;45362;-92
2022/12/12 05:25:09;;;;;;;;;25.00;20.25;;;;;4.04;61.91;1033.13;5053199;28;45803;-93
2022/12/12 05:27:35;;;;;;;;;22.25;21.00;;;;;4.14;61.52;704.59;5053407;28;47398;-91
2022/12/12 05:30:01;;;;;;;;;24.00;20.75;;;;;4.24;61.50;1363.72;5040780;28;45358;-95
2022/12/12 05:32:26;;;;;;;;;25.00;21.25;;;;;4.02;61.64;1362.22;5045314;28;45463;-93
2022/12/12 05:34:51;;;;;;;;;24.00;18.50;;;;;4.01;61.62;1033.00;5037645;28;45370;-93
2022/12/12 05:37:17;;;;;;;;;30.50;26.00;;;;;4.24;61.53;1034.44;5036717;28;45552;-93
2022/12/12 05:39:42;;;;;;;;;24.50;21.50;;;;;4.24;61.95;1034.44;5038277;28;46776;-95
2022/12/12 05:42:07;;;;;;;;;28.00;23.75;;;;;4.41;61.79;706.19;5057067;28;45457;-93
2022/12/12 05:44:33;;;;;;;;;30.00;27.00;;;;;3.91;61.97;374.25;5038433;28;45548;-94
2022/12/12 05:46:58;;;;;;;;;20.00;19.00;;;;;4.38;61.60;376.75;5051587;28;46982;-95
2022/12/12 05:49:23;;;;;;;;;30.00;21.75;;;;;4.49;61.77;377.28;5037765;28;47098;-93
2022/12/12 05:51:49;;;;;;;;;20.75;18.75;;;;;4.49;61.52;706.66;5061852;28;45370;-92
2022/12/12 05:54:14;;;;;;;;;27.25;25.00;;;;;4.49;61.82;706.66;5057322;28;45725;-93
2022/12/12 05:56:40;;;;;;;;;34.00;25.25;;;;;4.29;61.82;376.25;5064285;28;47214;-93
2022/12/12 05:59:05;;;;;;;;;29.75;23.00;;;;;4.49;61.75;706.66;5053805;28;45288;-92
2022/12/12 06:01:31;;;;;;;;;31.00;24.00;;;;;4.44;61.72;377.06;5038239;28;45332;-91
2022/12/12 06:03:56;;;;;;;;;23.00;21.25;;;;;4.45;61.80;377.09;5034372;28;45515;-91
2022/12/12 06:06:22;;;;;;;;;24.75;22.75;;;;;3.99;61.66;374.69;5035957;28;47512;-90
2022/12/12 06:08:47;;;;;;;;;25.50;21.00;;;;;4.26;61.70;705.28;5053430;28;45962;-89
2022/12/12 06:11:12;;;;;;;;;22.25;21.00;;;;;4.41;61.83;376.91;5036906;28;45676;-89
2022/12/12 06:13:38;;;;;;;;;24.75;23.50;;;;;4.30;62.22;376.28;5039186;28;45278;-90
2022/12/12 06:16:09;;;;;;;;;25.50;21.25;;;;;4.35;62.18;705.84;5054076;28;47652;-89
2022/12/12 06:18:35;;;;;;;;;28.25;23.50;;;;;4.36;62.31;705.91;5061815;28;45471;-90
2022/12/12 06:21:02;;;;;;;;;28.00;24.50;;;;;3.86;61.99;703.00;5049499;28;45456;-89
2022/12/12 06:23:27;;;;;;;;;23.25;18.25;;;;;3.89;61.80;703.13;5057157;28;45252;-89
2022/12/12 06:25:53;;;;;;;;;29.25;22.25;;;;;3.88;62.15;703.09;5054376;28;47016;-90
2022/12/12 06:28:18;;;;;;;;;29.25;27.00;;;;;4.06;62.14;704.13;5056512;28;45800;-88
2022/12/12 06:30:43;;;;;;;;;32.00;24.75;;;;;4.17;62.11;704.78;5040091;28;45439;-90
2022/12/12 06:33:09;;;;;;;;;25.75;23.50;;;;;4.38;62.11;706.00;5053326;28;45600;-88
2022/12/12 06:35:34;;;;;;;;;21.00;21.00;;;;;4.15;61.64;704.69;5030597;28;46920;-90
2022/12/12 06:37:59;;;;;;;;;33.25;23.25;;;;;3.73;61.76;702.22;5052919;28;45315;-92
2022/12/12 06:40:25;;;;;;;;;29.75;23.75;;;;;4.28;62.00;705.41;5045310;28;45486;-92
2022/12/12 06:42:50;;;;;;;;;25.50;25.25;;;;;4.21;62.27;375.81;5042661;28;45661;-90
2022/12/12 06:45:16;;;;;;;;;28.50;25.00;;;;;3.51;62.18;700.94;5059088;28;47071;-90
2022/12/12 06:47:41;;;;;;;;;22.00;20.25;;;;;3.88;62.38;703.09;5057209;28;45464;-90
2022/12/12 06:50:07;;;;;;;;;28.00;24.00;;;;;4.23;62.21;705.19;5054700;28;45458;-94
2022/12/12 06:52:32;;;;;;;;;24.50;22.25;;;;;4.04;62.40;374.91;5056552;28;45525;-92
2022/12/12 06:54:58;;;;;;;;;22.00;21.25;;;;;4.04;62.50;704.00;5047342;28;47039;-91
2022/12/12 06:57:23;;;;;;;;;25.00;21.75;;;;;3.75;62.44;373.41;5040717;28;46122;-92
2022/12/12 06:59:51;;;;;;;;;22.25;18.00;;;;;4.20;62.28;375.78;5065480;28;45409;-95
2022/12/12 07:02:16;;;;;;;;;25.00;21.50;;;;;4.25;62.18;705.22;5061013;28;45288;-96
2022/12/12 07:05:20;;;;;;;;;36.25;29.75;;;;;4.21;62.31;705.06;5039572;28;47016;-96
2022/12/12 07:07:45;;;;;;;;;26.25;23.00;;;;;3.62;62.16;701.59;5064512;22;45881;-93
2022/12/12 07:10:11;;;;;;;;;27.50;27.00;;;;;3.39;62.22;700.25;5008488;28;45740;-89
2022/12/12 07:12:36;;;;;;;;;23.25;22.25;;;;;3.57;62.14;372.44;5016846;28;45435;-91
2022/12/12 07:15:01;;;;;;;;;20.00;19.25;;;;;4.29;62.27;705.50;5016966;28;45533;-92
2022/12/12 07:17:30;;;;;;;;;30.75;23.75;;;;;4.29;62.29;705.50;5000956;28;45792;-91
2022/12/12 07:19:55;;;;;;;;;32.75;26.75;;;;;3.91;62.07;703.28;5015457;28;46637;-93
2022/12/12 07:22:21;;;;;;;;;31.00;29.50;;;;;3.54;62.17;372.28;5011943;28;45478;-91
2022/12/12 07:24:52;;;;;;;;;28.75;25.00;;;;;2.54;61.75;1023.69;5007760;28;48035;-91
2022/12/12 07:27:35;;;;;;;;;28.25;20.75;;;;;3.22;61.78;1027.94;5007346;28;45780;-95
2022/12/12 07:30:23;;;;;;;;;37.25;29.50;;;;;2.57;61.62;1352.25;5013705;28;45517;-96
2022/12/12 07:32:50;;;;;;;;;25.00;20.00;;;;;4.32;61.57;1364.28;5015900;28;45746;-91
2022/12/12 07:35:16;;;;;;;;;27.25;24.75;;;;;4.22;61.75;1363.56;5014700;28;47496;-89
2022/12/12 07:37:44;;;;;;;;;32.75;25.25;;;;;4.20;61.64;1692.75;5015063;28;45606;-90
2022/12/12 07:40:09;;;;;;;;;34.50;31.75;;;;;3.42;61.81;1358.03;5089854;22;45639;-96
2022/12/12 07:42:35;;;;;;;;;37.25;31.00;;;;;3.17;61.91;1356.38;5040280;28;45584;-94
2022/12/12 07:45:00;;;;;;;;;25.00;24.00;;;;;3.86;62.46;1361.09;5033285;28;46373;-96
2022/12/12 07:47:26;;;;;;;;;34.25;27.25;;;;;3.06;62.07;1355.56;5032943;28;46769;-96
2022/12/12 07:49:51;;;;;;;;;37.50;31.50;;;;;2.89;61.89;1683.03;5041779;28;45767;-95
2022/12/12 07:52:16;;;;;;;;;39.00;34.75;;;;;3.79;61.75;1689.66;5028779;28;45446;-94
2022/12/12 07:54:42;;;;;;;;;37.25;32.75;;;;;3.85;62.05;2019.22;5038060;28;46630;-95
2022/12/12 07:57:08;;;;;;;;;37.50;34.25;;;;;3.91;61.82;1690.53;5018123;28;45552;-93
2022/12/12 07:59:33;;;;;;;;;29.50;25.25;;;;;4.11;61.97;2021.28;5037237;28;45501;-93
2022/12/12 08:01:59;;;;;;;;;31.00;24.25;;;;;4.10;61.88;2021.25;5040193;28;45252;-94
2022/12/12 08:04:24;;;;;;;;;27.25;24.50;;;;;4.00;62.08;1691.28;5037937;28;48412;-93
2022/12/12 08:06:49;;;;;;;;;30.25;29.00;;;;;3.62;61.84;1688.41;5011803;28;45302;-93
2022/12/12 08:09:15;;;;;;;;;35.75;31.00;;;;;4.01;61.93;1691.34;5036215;28;45431;-93
2022/12/12 08:11:40;;;;;;;;;37.50;30.00;;;;;3.52;62.02;1358.78;5028413;28;45633;-93
2022/12/12 08:14:07;;;;;;;;;30.75;25.75;;;;;4.23;61.61;1363.69;5035047;28;48110;-92
2022/12/12 08:16:32;;;;;;;;;29.75;26.25;;;;;3.88;61.41;1690.31;5018494;28;45522;-90
2022/12/12 08:18:58;;;;;;;;;39.00;29.00;;;;;4.17;61.84;1692.50;5036990;28;45347;-89
2022/12/12 08:21:24;;;;;;;;;33.50;29.25;;;;;3.84;61.81;1690.06;5034751;28;45393;-90
2022/12/12 08:23:50;;;;;;;;;35.75;31.00;;;;;4.29;61.23;1693.38;5035673;28;45680;-91
2022/12/12 08:26:17;;;;;;;;;32.25;27.50;;;;;4.40;61.64;1364.84;5033247;28;47075;-90
2022/12/12 08:28:48;;;;;;;;;34.50;30.00;;;;;4.41;61.42;1364.94;5029143;28;45462;-89
2022/12/12 08:31:17;;;;;;;;;27.00;27.00;;;;;4.05;61.17;1362.41;5035043;28;45564;-89
2022/12/12 08:33:42;;;;;;;;;35.50;26.50;;;;;4.03;61.30;1691.47;5032990;28;45574;-90
2022/12/12 08:36:17;;;;;;;;;27.50;24.50;;;;;4.43;61.53;1365.06;5030855;28;45817;-89
2022/12/12 08:38:43;;;;;;;;;26.50;24.00;;;;;3.59;61.29;1359.22;5031125;28;45637;-90
2022/12/12 08:41:09;;;;;;;;;29.50;26.25;;;;;4.51;61.66;1036.19;5031737;28;45638;-89
2022/12/12 08:43:36;;;;;;;;;35.25;30.75;;;;;4.14;60.88;1363.00;5028553;28;47297;-88
2022/12/12 08:46:02;;;;;;;;;26.25;24.25;;;;;4.50;61.18;1694.97;5033179;28;45485;-88
2022/12/12 08:48:29;;;;;;;;;35.25;30.50;;;;;3.94;61.31;2019.94;5031033;28;46753;-88
2022/12/12 08:50:55;;;;;;;;;27.00;27.00;;;;;4.35;61.37;2352.63;5024844;28;45456;-89
2022/12/12 08:53:21;;;;;;;;;39.00;32.75;;;;;4.18;60.95;2680.59;5024073;28;45434;-88
2022/12/12 08:55:46;;;;;;;;;33.00;28.75;;;;;3.98;61.51;2349.53;5029717;28;45504;-88
2022/12/12 08:58:12;;;;;;;;;35.75;33.50;;;;;4.14;61.33;2021.56;5027394;28;45956;-89
2022/12/12 09:00:37;;;;;;;;;34.25;29.00;;;;;4.40;61.04;2023.66;5034690;28;45471;-91
2022/12/12 09:03:03;;;;;;;;;40.50;33.00;;;;;4.43;61.35;2023.88;5014579;28;48442;-92
2022/12/12 09:05:29;;;;;;;;;40.50;32.75;;;;;3.96;61.00;2678.59;5023822;28;45528;-92
2022/12/12 09:07:54;;;;;;;;;39.50;34.00;;;;;3.94;60.98;2349.13;5034832;28;45338;-92
2022/12/12 09:10:19;;;;;;;;;42.75;36.00;;;;;3.91;61.30;2019.69;5018737;28;45606;-92
2022/12/12 09:12:45;;;;;;;;;34.00;34.00;;;;;3.70;60.80;2347.13;5028206;28;47035;-92
2022/12/12 09:15:10;;;;;;;;;41.75;35.00;;;;;3.77;60.96;1689.56;5038765;28;45607;-92
2022/12/12 09:17:35;;;;;;;;;40.25;31.00;;;;;4.57;61.07;2024.97;5042719;28;45739;-92
2022/12/12 09:20:02;;;;;;;;;41.50;36.00;;;;;4.60;60.57;1695.72;5024493;28;45243;-92
2022/12/12 09:22:27;;;;;;;;;38.75;36.75;;;;;4.47;60.72;1694.69;5030564;28;48516;-96
2022/12/12 09:24:53;;;;;;;;;41.75;33.00;;;;;2.84;60.59;2339.81;5043723;28;45189;-96
2022/12/12 09:27:18;;;;;;;;;36.50;31.00;;;;;3.87;60.16;2019.41;5039603;28;45314;-96
2022/12/12 09:29:44;;;;;;;;;35.75;32.25;;;;;3.59;60.65;1688.19;5045535;28;45220;-96
2022/12/12 09:32:09;;;;;;;;;41.75;33.75;;;;;2.98;60.26;2012.28;5013781;28;47123;-96
2022/12/12 09:34:38;;;;;;;;;38.50;34.25;;;;;3.07;59.83;2341.75;5018380;28;45328;-96
2022/12/12 09:37:04;;;;;;;;;37.25;33.75;;;;;3.07;59.70;2341.78;5038250;28;45350;-96
2022/12/12 09:39:30;;;;;;;;;38.00;34.50;;;;;3.13;59.79;2342.28;5029848;28;45424;-96
2022/12/12 09:41:56;;;;;;;;;37.00;35.25;;;;;3.24;59.59;2014.34;5043176;28;46630;-96
2022/12/12 09:44:24;;;;;;;;;34.25;32.75;;;;;4.35;59.47;2023.25;5029598;28;45952;-96
2022/12/12 09:46:59;;;;;;;;;37.50;36.25;;;;;3.21;58.69;2342.91;5039250;28;44781;-96
2022/12/12 09:49:38;;;;;;;;;37.75;33.50;;;;;5.12;58.93;2359.22;5043961;28;45331;-96
2022/12/12 09:52:05;;;;;;;;;41.50;34.50;;;;;3.26;59.14;2672.22;5040363;28;47297;-96
2022/12/12 09:54:30;;;;;;;;;40.00;32.25;;;;;4.49;58.59;2683.31;5052938;28;45399;-96
2022/12/12 09:57:14;;;;;;;;;37.00;33.50;;;;;5.32;58.18;2690.84;5034663;28;45510;-96
2022/12/12 10:00:02;;;;;;;;;38.75;32.50;;;;;3.25;58.42;3001.06;5040817;28;45289;-96
2022/12/12 10:02:49;;;;;;;;;37.75;31.50;;;;;5.34;58.19;3021.03;5037097;28;47032;-96
2022/12/12 10:05:25;;;;;;;;;27.50;25.75;;;;;4.19;58.39;3339.44;5033257;28;44753;-96
2022/12/12 10:08:11;;;;;;;;;43.50;34.00;;;;;5.38;58.50;3021.44;5037948;28;44887;-96
2022/12/12 10:10:46;;;;;;;;;27.50;27.25;;;;;3.49;57.95;3332.34;5051990;28;45415;-96
2022/12/12 10:13:19;;;;;;;;;34.75;32.00;;;;;3.50;57.85;3990.63;5053555;28;47420;-96
2022/12/12 10:15:50;;;;;;;;;46.75;38.00;;;;;3.60;57.86;3991.75;5048411;28;45397;-96
2022/12/12 10:18:23;;;;;;;;;29.75;25.50;;;;;3.47;57.84;3661.19;5048681;28;45375;-96
2022/12/12 10:20:52;;;;;;;;;34.75;27.00;;;;;5.42;57.71;3682.06;5024175;28;45553;-96
2022/12/12 10:23:26;;;;;;;;;42.50;35.50;;;;;4.76;57.42;4004.69;5063088;28;48615;-96
2022/12/12 10:25:58;;;;;;;;;39.25;33.00;;;;;5.56;57.42;4013.72;5049141;28;45403;-96
2022/12/12 10:28:26;;;;;;;;;43.75;37.75;;;;;3.64;57.30;4321.41;5040883;28;45364;-96
2022/12/12 10:31:15;;;;;;;;;36.75;31.75;;;;;5.62;57.26;4344.69;5058234;28;44864;-96
2022/12/12 10:34:13;;;;;;;;;41.00;36.75;;;;;4.39;56.88;4659.88;5039158;28;47472;-96
2022/12/12 10:37:08;;;;;;;;;43.75;35.25;;;;;5.68;56.97;4345.34;5049080;28;45635;-96
2022/12/12 10:40:08;;;;;;;;;34.50;32.00;;;;;3.82;56.58;4323.53;5050416;28;45412;-96
2022/12/12 10:42:51;;;;;;;;;35.00;29.25;;;;;4.50;56.96;4990.84;5047656;28;45367;-96
2022/12/12 10:45:51;;;;;;;;;34.75;34.50;;;;;3.18;56.19;4974.03;5039305;28;46908;-96
2022/12/12 10:48:17;;;;;;;;;34.50;32.75;;;;;3.83;56.85;5311.66;5060165;28;45599;-96
2022/12/12 10:50:53;;;;;;;;;43.25;32.50;;;;;3.92;56.92;5312.88;5054666;28;44833;-96
2022/12/12 10:53:20;;;;;;;;;36.50;34.50;;;;;3.54;56.52;5307.84;5050302;28;44843;-96
2022/12/12 10:55:59;;;;;;;;;38.25;31.00;;;;;5.68;56.72;5666.88;5057390;28;45450;-96
2022/12/12 10:58:34;;;;;;;;;38.75;34.50;;;;;3.69;56.30;6297.94;5065801;28;44694;-96
2022/12/12 11:01:03;;;;;;;;;36.75;29.75;;;;;4.61;56.07;5981.78;5031219;28;44698;-96
2022/12/12 11:03:34;;;;;;;;;35.25;33.00;;;;;3.73;56.13;6628.00;5048261;28;44829;-96
2022/12/12 11:06:06;;;;;;;;;34.25;31.50;;;;;4.12;55.80;6634.00;5057677;28;47580;-96
2022/12/12 11:08:35;;;;;;;;;37.00;29.50;;;;;4.36;55.99;7957.22;5050498;28;44689;-96
2022/12/12 11:11:18;;;;;;;;;33.50;26.50;;;;;5.52;55.86;7977.56;5038734;28;45423;-96
2022/12/12 11:13:49;;;;;;;;;37.50;32.25;;;;;4.65;56.26;7962.28;5034838;28;45034;-96
2022/12/12 11:16:28;;;;;;;;;32.25;27.75;;;;;3.44;56.10;8270.47;5027430;28;47474;-96
2022/12/12 11:19:04;;;;;;;;;39.25;32.50;;;;;3.45;56.16;8600.13;5054915;28;44931;-96
2022/12/12 11:21:35;;;;;;;;;40.00;33.50;;;;;3.17;56.47;8924.31;5032319;28;45124;-96
2022/12/12 11:24:08;;;;;;;;;33.50;28.25;;;;;3.59;56.20;8932.34;5059591;28;44956;-96
2022/12/12 11:26:48;;;;;;;;;44.00;35.00;;;;;4.61;56.54;8621.72;5039218;28;45682;-92
2022/12/12 11:29:39;;;;;;;;;41.75;33.00;;;;;5.27;56.55;8634.16;5016385;28;45908;-90
2022/12/12 11:32:12;;;;;;;;;34.75;31.00;;;;;5.04;56.60;8629.75;5029995;28;45469;-90
2022/12/12 11:34:42;;;;;;;;;34.75;31.00;;;;;4.94;56.69;8297.66;5030903;28;45580;-91
2022/12/12 11:37:14;;;;;;;;;34.25;32.75;;;;;5.18;56.61;7971.69;5021463;28;47315;-90
2022/12/12 11:39:44;;;;;;;;;32.25;30.00;;;;;5.06;56.48;7969.50;5028116;28;45813;-90
2022/12/12 11:42:12;;;;;;;;;33.50;31.50;;;;;5.40;56.54;7975.56;5034329;28;45548;-93
2022/12/12 11:44:38;;;;;;;;;35.75;34.00;;;;;5.22;56.14;7972.31;5037973;28;45402;-94
2022/12/12 11:47:23;;;;;;;;;37.50;31.50;;;;;5.42;56.40;8306.44;5019460;28;47382;-93
2022/12/12 11:49:54;;;;;;;;;32.25;32.25;;;;;5.04;56.08;8629.84;5025470;28;45714;-94
2022/12/12 11:52:28;;;;;;;;;33.50;32.00;;;;;5.40;56.15;7975.56;5018071;28;45297;-94
2022/12/12 11:54:54;;;;;;;;;42.75;35.50;;;;;5.48;56.08;7646.44;5018235;28;45353;-94
2022/12/12 11:57:29;;;;;;;;;25.75;17.00;;;;;5.74;56.32;7320.28;5025952;28;47180;-93
2022/12/12 12:00:10;;;;;;;;;41.00;35.25;;;;;5.65;55.69;7649.31;5034457;28;45374;-93
2022/12/12 12:02:57;;;;;;;;;26.50;26.50;;;;;5.78;55.65;7982.25;5026154;28;45411;-94
2022/12/12 12:05:45;;;;;;;;;37.75;32.00;;;;;5.76;54.90;8312.59;5029879;28;45384;-92